KANB

Anniston Regional Airport

Anniston, Alabama, USA
KANB 241741Z 2418/2518 13008G18KT 6SM SHRA VCTS SCT040CB BKN090 FM250400 15005KT P6SM OVC100 FM250700 07006KT P6SM SCT025
Issued Valid From Valid To
Sep-24 @ 17:41 UTC
(2 hours ago)
Sep-24 @ 18:00 UTC
(2 hours ago)
Sep-25 @ 18:00 UTC
(in 22 hours)
Sep-24 @ 18:00 to Sep-25 @ 04:00
KANB 241741Z 2418/2518 13008G18KT 6SM SHRA VCTS SCT040CB BKN090
Wind Visibility Clouds Conditions
130° at 8 knots
 Gusting to 18 knots
6 miles
  • Scattered at 4,000' AGL
  • Broken at 9,000' AGL
  • Rain
  • Area Thunderstorm
From Sep-25 @ 04:00 to Sep-25 @ 07:00
FM250400 15005KT P6SM OVC100
Wind Visibility Clouds
150° at 5 knots Greater than 6 miles
  • Overcast at 10,000' AGL
From Sep-25 @ 07:00 to Sep-25 @ 18:00
FM250700 07006KT P6SM SCT025
Wind Visibility Clouds
70° at 6 knots Greater than 6 miles
  • Scattered at 2,500' AGL
KANB 241741Z 2418/2518 13008G18KT 6SM SHRA VCTS SCT040CB BKN090 FM250400 15005KT P6SM OVC100 FM250700 07006KT P6SM SCT025
Issued Sep-24 @ 17:41 UTC
(2 hours ago)
Valid From Sep-24 @ 18:00 UTC
(2 hours ago)
Valid To Sep-25 @ 18:00 UTC
(in 22 hours)
Sep-24 @ 18:00 - Sep-25 @ 04:00
Wind Visibility
130° at 8 knots
 Gusting to 18 knots
6 miles
Clouds
  • Scattered at 4,000' AGL
  • Broken at 9,000' AGL
Conditions
  • Rain
  • Area Thunderstorm
From Sep-25 @ 04:00 - Sep-25 @ 07:00
Wind Visibility
150° at 5 knots Greater than 6 miles
Clouds
  • Overcast at 10,000' AGL
From Sep-25 @ 07:00 - Sep-25 @ 18:00
Wind Visibility
70° at 6 knots Greater than 6 miles
Clouds
  • Scattered at 2,500' AGL